Time;durP1;ratioP1;P1;durP2;ratioP2;P2;SDS_P1;SDS_P2;PMS_P1;PMS_P2;Temp;Humidity;BMP_temperature;BMP_pressure;BME280_temperature;BME280_humidity;BME280_pressure;Samples;Min_cycle;Max_cycle;Signal;HPM_P1;HPM_P2
2024/03/13 00:00:22;;;;;;;19.13;5.10;;;;;;;6.01;100.00;100690.59;5127602;27;20034;-70
2024/03/13 00:02:49;;;;;;;13.52;5.60;;;;;;;6.08;100.00;100696.16;5130004;27;20031;-70
2024/03/13 00:05:15;;;;;;;13.63;5.57;;;;;;;6.00;100.00;100694.13;5131083;27;20087;-70
2024/03/13 00:07:40;;;;;;;9.63;3.85;;;;;;;5.92;100.00;100699.00;5133573;27;20117;-70
2024/03/13 00:10:08;;;;;;;11.15;5.13;;;;;;;5.86;100.00;100704.59;5129990;27;20036;-70
2024/03/13 00:12:34;;;;;;;11.43;4.90;;;;;;;5.84;100.00;100706.44;5132100;27;20127;-70
2024/03/13 00:15:01;;;;;;;8.30;3.67;;;;;;;5.84;100.00;100703.88;5130997;27;20031;-70
2024/03/13 00:17:27;;;;;;;10.10;3.47;;;;;;;5.95;100.00;100709.97;5117571;27;20084;-70
2024/03/13 00:19:56;;;;;;;6.82;4.00;;;;;;;5.89;100.00;100701.81;5128101;27;20039;-70
2024/03/13 00:22:23;;;;;;;6.60;2.95;;;;;;;5.82;100.00;100700.56;5128104;27;20063;-70
2024/03/13 00:24:50;;;;;;;10.55;3.50;;;;;;;5.75;100.00;100709.69;5131140;27;20036;-70
2024/03/13 00:27:16;;;;;;;9.85;3.47;;;;;;;5.71;100.00;100698.72;5128778;27;20045;-70
2024/03/13 00:29:47;;;;;;;6.07;2.95;;;;;;;5.68;100.00;100694.59;5130653;27;20019;-70
2024/03/13 00:32:20;;;;;;;8.82;3.55;;;;;;;5.62;100.00;100700.22;5130654;27;20524;-70
2024/03/13 00:34:46;;;;;;;5.78;3.05;;;;;;;5.65;100.00;100700.00;5129849;27;20121;-70
2024/03/13 00:37:13;;;;;;;6.57;3.38;;;;;;;5.70;100.00;100691.91;5125768;27;20447;-69
2024/03/13 00:39:39;;;;;;;6.05;3.08;;;;;;;5.64;100.00;100693.19;5131122;27;20039;-69
2024/03/13 00:42:05;;;;;;;8.30;3.63;;;;;;;5.61;100.00;100685.63;5127099;27;20060;-70
2024/03/13 00:44:40;;;;;;;12.38;3.30;;;;;;;5.58;100.00;100678.09;5131432;27;20035;-70
2024/03/13 00:47:06;;;;;;;9.93;4.28;;;;;;;5.63;100.00;100675.19;5127570;27;20039;-70
2024/03/13 00:49:32;;;;;;;10.10;4.05;;;;;;;5.62;100.00;100676.97;5123636;27;20027;-69
2024/03/13 00:51:59;;;;;;;6.18;3.40;;;;;;;5.57;100.00;100668.69;5128382;27;20512;-69
2024/03/13 00:54:24;;;;;;;10.52;4.13;;;;;;;5.56;100.00;100664.47;5131203;27;20031;-69
2024/03/13 00:56:50;;;;;;;10.10;4.60;;;;;;;5.54;100.00;100665.50;5128603;27;20393;-69
2024/03/13 00:59:16;;;;;;;8.68;3.78;;;;;;;5.49;100.00;100663.22;5129587;27;20100;-69
2024/03/13 01:01:44;;;;;;;12.55;4.03;;;;;;;5.48;100.00;100669.34;5130393;27;20102;-69
2024/03/13 01:04:10;;;;;;;10.80;4.32;;;;;;;5.47;100.00;100670.25;5129058;27;20058;-69
2024/03/13 01:06:38;;;;;;;8.70;3.95;;;;;;;5.48;100.00;100663.34;5130805;27;20035;-69
2024/03/13 01:09:04;;;;;;;7.25;3.78;;;;;;;5.56;100.00;100664.47;5130128;27;20039;-69
2024/03/13 01:11:30;;;;;;;8.85;3.88;;;;;;;5.57;100.00;100653.19;5110890;27;20463;-70
2024/03/13 01:13:56;;;;;;;7.38;3.42;;;;;;;5.50;100.00;100662.28;5130549;27;20035;-69
2024/03/13 01:16:22;;;;;;;7.82;3.38;;;;;;;5.47;100.00;100648.75;5129632;27;20038;-70
2024/03/13 01:18:48;;;;;;;6.85;2.67;;;;;;;5.53;100.00;100656.09;5131766;27;20027;-69
2024/03/13 01:21:14;;;;;;;10.65;3.90;;;;;;;5.46;100.00;100660.84;5129218;27;20023;-70
2024/03/13 01:23:41;;;;;;;6.10;2.88;;;;;;;5.42;100.00;100654.25;5131705;27;20092;-69
2024/03/13 01:26:08;;;;;;;12.75;3.05;;;;;;;5.39;100.00;100651.06;5133684;27;20080;-70
2024/03/13 01:28:36;;;;;;;7.45;3.40;;;;;;;5.34;100.00;100654.78;5126412;27;20434;-70
2024/03/13 01:31:07;;;;;;;9.38;3.40;;;;;;;5.30;100.00;100649.94;5127591;27;20027;-70
2024/03/13 01:33:38;;;;;;;7.75;3.67;;;;;;;5.36;100.00;100646.09;5126201;27;20032;-70
2024/03/13 01:36:07;;;;;;;6.72;3.85;;;;;;;5.32;100.00;100645.47;5128188;27;20474;-70
2024/03/13 01:38:33;;;;;;;9.00;3.88;;;;;;;5.41;100.00;100647.44;5130840;27;20056;-70
2024/03/13 01:55:25;;;;;;;8.63;3.83;;;;;;;6.94;100.00;100640.50;5127962;27;20095;-70
2024/03/13 01:58:19;;;;;;;11.75;4.80;;;;;;;6.85;100.00;100635.19;5124031;27;20433;-70
2024/03/13 02:03:26;;;;;;;7.53;4.40;;;;;;;6.17;100.00;100630.81;5125522;27;20034;-70
2024/03/13 02:05:52;;;;;;;9.23;4.03;;;;;;;5.98;100.00;100634.75;5126337;27;20030;-70
2024/03/13 02:08:18;;;;;;;6.90;4.45;;;;;;;5.88;100.00;100627.72;5103502;27;20093;-70
2024/03/13 02:10:45;;;;;;;7.60;2.72;;;;;;;5.79;100.00;100629.19;5130181;27;20047;-70
2024/03/13 02:13:15;;;;;;;9.63;3.47;;;;;;;5.81;100.00;100626.50;5126373;27;20031;-70
2024/03/13 02:15:42;;;;;;;9.38;3.40;;;;;;;5.82;100.00;100628.16;5128818;27;20398;-69
2024/03/13 02:18:29;;;;;;;7.60;2.78;;;;;;;5.68;100.00;100629.97;5127470;27;20035;-69
2024/03/13 02:21:01;;;;;;;11.07;2.65;;;;;;;5.74;100.00;100633.88;5126419;27;20027;-70
2024/03/13 02:23:28;;;;;;;6.72;2.35;;;;;;;5.78;100.00;100629.31;5128565;27;20031;-70
2024/03/13 02:25:55;;;;;;;8.18;3.58;;;;;;;5.84;100.00;100637.47;5130113;27;20057;-70
2024/03/13 02:28:29;;;;;;;7.93;3.55;;;;;;;6.39;100.00;100633.47;5124578;27;20076;-70
2024/03/13 02:30:55;;;;;;;10.63;3.90;;;;;;;6.69;100.00;100629.50;5128576;27;20036;-70
2024/03/13 02:33:20;;;;;;;6.38;3.33;;;;;;;6.84;100.00;100620.59;5128685;27;23612;-70
2024/03/13 02:35:45;;;;;;;8.05;4.28;;;;;;;6.91;100.00;100625.19;5133535;27;20059;-70
2024/03/13 02:38:11;;;;;;;7.75;3.30;;;;;;;6.92;100.00;100624.25;5129847;27;20029;-70
2024/03/13 02:40:36;;;;;;;7.05;3.53;;;;;;;6.91;100.00;100626.97;5106471;27;20065;-70
2024/03/13 02:43:02;;;;;;;7.70;3.03;;;;;;;6.95;100.00;100636.16;5130040;27;20087;-69
2024/03/13 02:45:27;;;;;;;7.68;3.80;;;;;;;7.02;100.00;100633.91;5128993;27;20085;-70
2024/03/13 02:47:53;;;;;;;7.47;3.50;;;;;;;7.05;100.00;100631.91;5124909;27;20068;-70
2024/03/13 02:50:19;;;;;;;6.50;2.53;;;;;;;7.06;100.00;100636.16;5124628;27;20031;-69
2024/03/13 02:52:44;;;;;;;7.28;3.22;;;;;;;7.07;100.00;100634.38;5128645;27;20122;-70
2024/03/13 02:55:13;;;;;;;5.38;2.72;;;;;;;7.05;100.00;100639.69;5128014;27;20027;-70
2024/03/13 02:57:39;;;;;;;7.63;2.60;;;;;;;7.02;100.00;100641.69;5127796;27;20092;-70
2024/03/13 03:00:10;;;;;;;6.65;2.17;;;;;;;6.97;100.00;100632.50;5124727;27;20436;-69
2024/03/13 03:02:35;;;;;;;6.40;2.63;;;;;;;6.96;100.00;100643.81;5130716;27;20490;-70
2024/03/13 03:05:03;;;;;;;7.35;3.35;;;;;;;7.01;100.00;100632.28;5129373;27;20038;-69
2024/03/13 03:07:28;;;;;;;7.45;2.53;;;;;;;6.94;100.00;100635.31;5131648;27;20559;-69
2024/03/13 03:09:54;;;;;;;7.38;3.00;;;;;;;6.92;100.00;100641.56;5129842;27;20043;-69
2024/03/13 03:12:20;;;;;;;6.53;2.67;;;;;;;6.93;100.00;100643.22;5128316;27;20505;-70
2024/03/13 03:14:45;;;;;;;5.57;1.83;;;;;;;6.91;100.00;100637.31;5133306;27;20500;-70
2024/03/13 03:17:11;;;;;;;9.55;2.65;;;;;;;6.91;100.00;100640.75;5132256;27;20114;-70
2024/03/13 03:19:36;;;;;;;4.47;2.17;;;;;;;6.89;100.00;100645.22;5130932;27;20031;-70
2024/03/13 03:22:03;;;;;;;5.55;2.47;;;;;;;6.89;100.00;100645.22;5129059;27;20078;-70
2024/03/13 03:24:30;;;;;;;11.50;2.85;;;;;;;6.92;100.00;100652.75;5131407;27;20118;-70
2024/03/13 03:26:59;;;;;;;6.28;2.25;;;;;;;6.91;100.00;100652.88;5131483;27;20113;-69
2024/03/13 03:29:26;;;;;;;5.45;1.85;;;;;;;6.88;100.00;100643.56;5109092;27;20027;-69
2024/03/13 03:31:52;;;;;;;5.57;1.85;;;;;;;6.89;100.00;100641.78;5124018;27;20432;-70
2024/03/13 03:34:17;;;;;;;9.90;2.75;;;;;;;6.89;100.00;100644.38;5130769;27;20023;-70
2024/03/13 03:36:42;;;;;;;5.88;2.45;;;;;;;6.88;100.00;100640.16;5131929;27;20114;-70
2024/03/13 03:39:10;;;;;;;5.32;2.35;;;;;;;6.81;100.00;100637.19;5130139;27;20496;-70
2024/03/13 03:41:39;;;;;;;7.43;3.20;;;;;;;6.81;100.00;100632.00;5131045;27;20077;-70
2024/03/13 03:44:05;;;;;;;6.93;2.45;;;;;;;6.84;100.00;100633.53;5129051;27;20469;-70
2024/03/13 03:46:31;;;;;;;5.63;2.20;;;;;;;6.86;100.00;100635.09;5131670;27;20081;-69
2024/03/13 03:48:58;;;;;;;6.85;2.50;;;;;;;6.87;100.00;100635.91;5128901;27;20478;-70
2024/03/13 03:51:24;;;;;;;8.68;3.65;;;;;;;6.89;100.00;100637.44;5128306;27;20076;-70
2024/03/13 03:53:50;;;;;;;5.13;2.17;;;;;;;6.83;100.00;100637.91;5128878;27;20030;-70
2024/03/13 03:56:16;;;;;;;7.40;2.60;;;;;;;6.82;100.00;100636.25;5129567;27;20023;-69
2024/03/13 03:58:42;;;;;;;4.85;2.85;;;;;;;6.81;100.00;100636.38;5130021;27;20050;-70
2024/03/13 04:01:08;;;;;;;6.90;2.85;;;;;;;6.79;100.00;100644.25;5129677;27;20039;-70
2024/03/13 04:03:36;;;;;;;7.05;2.22;;;;;;;6.76;100.00;100641.88;5133115;27;20047;-70
2024/03/13 04:06:03;;;;;;;7.45;2.50;;;;;;;6.76;100.00;100646.25;5130931;27;20521;-69
2024/03/13 04:08:28;;;;;;;6.22;2.20;;;;;;;6.78;100.00;100644.38;5133578;27;20146;-69
2024/03/13 04:10:54;;;;;;;7.72;2.53;;;;;;;6.76;100.00;100651.44;5110043;27;20517;-69
2024/03/13 04:13:21;;;;;;;9.68;3.05;;;;;;;6.69;100.00;100650.22;5129836;27;20169;-69
2024/03/13 04:15:47;;;;;;;7.38;2.03;;;;;;;6.66;100.00;100648.69;5130081;27;20422;-69
2024/03/13 04:18:13;;;;;;;5.70;2.53;;;;;;;6.63;100.00;100651.50;5133562;27;20038;-69
2024/03/13 04:20:38;;;;;;;5.43;2.25;;;;;;;6.60;100.00;100657.78;5132031;27;20084;-69
2024/03/13 04:23:07;;;;;;;4.72;2.33;;;;;;;6.58;100.00;100659.66;5132731;27;20092;-70
2024/03/13 04:25:36;;;;;;;5.45;1.95;;;;;;;6.58;100.00;100653.66;5129688;27;20053;-69
2024/03/13 04:28:02;;;;;;;4.93;2.33;;;;;;;6.55;100.00;100661.63;5111718;27;20049;-69
2024/03/13 04:30:29;;;;;;;4.53;2.13;;;;;;;6.50;100.00;100645.63;5131419;27;20030;-69
2024/03/13 04:32:54;;;;;;;5.85;2.63;;;;;;;6.48;100.00;100652.69;5125186;27;20468;-70
2024/03/13 04:35:20;;;;;;;4.53;2.47;;;;;;;6.45;100.00;100652.91;5111038;27;20478;-69
2024/03/13 04:37:46;;;;;;;5.25;2.15;;;;;;;6.48;100.00;100652.69;5125511;27;20047;-69
2024/03/13 04:40:12;;;;;;;7.72;2.03;;;;;;;6.51;100.00;100657.63;5128572;27;20035;-69
2024/03/13 04:42:37;;;;;;;9.88;2.00;;;;;;;6.55;100.00;100659.06;5129184;27;20068;-69
2024/03/13 04:45:03;;;;;;;8.18;2.55;;;;;;;6.55;100.00;100662.47;5129576;27;20031;-69
2024/03/13 04:47:31;;;;;;;5.65;1.73;;;;;;;6.62;100.00;100670.56;5126498;27;20027;-69
2024/03/13 04:49:56;;;;;;;6.13;2.13;;;;;;;6.67;100.00;100660.69;5130338;27;20411;-69
2024/03/13 04:52:23;;;;;;;7.15;1.75;;;;;;;6.66;100.00;100672.81;5131040;27;20037;-69
2024/03/13 04:54:48;;;;;;;3.38;1.83;;;;;;;6.60;100.00;100668.13;5129570;27;20077;-69
2024/03/13 04:57:14;;;;;;;8.48;2.25;;;;;;;6.56;100.00;100678.81;5111277;27;20151;-70
2024/03/13 04:59:39;;;;;;;5.78;2.28;;;;;;;6.56;100.00;100671.06;5128835;27;20455;-69
2024/03/13 05:02:04;;;;;;;4.13;2.05;;;;;;;6.55;100.00;100678.00;5127125;27;20118;-69
2024/03/13 05:04:30;;;;;;;8.27;2.03;;;;;;;6.55;100.00;100674.59;5129968;27;20031;-69
2024/03/13 05:07:01;;;;;;;6.75;1.92;;;;;;;6.50;100.00;100676.69;5128383;27;20027;-69
2024/03/13 05:09:30;;;;;;;3.58;2.15;;;;;;;6.49;100.00;100680.22;5125567;27;20027;-69
2024/03/13 05:11:56;;;;;;;8.15;2.13;;;;;;;6.50;100.00;100676.69;5128501;27;20042;-69
2024/03/13 05:14:22;;;;;;;4.68;1.95;;;;;;;6.50;100.00;100677.50;5129652;27;20246;-69
2024/03/13 05:16:47;;;;;;;6.35;2.17;;;;;;;6.55;100.00;100674.59;5131141;27;20501;-69
2024/03/13 05:19:13;;;;;;;6.03;2.03;;;;;;;6.50;100.00;100682.69;5127780;27;20035;-70
2024/03/13 05:21:38;;;;;;;7.30;1.60;;;;;;;6.52;100.00;100685.16;5131777;27;20118;-70
2024/03/13 05:24:06;;;;;;;4.82;1.33;;;;;;;6.53;100.00;100687.63;5130070;27;20434;-69
2024/03/13 05:26:33;;;;;;;6.40;1.95;;;;;;;6.50;100.00;100689.63;5120753;27;20497;-69
2024/03/13 05:29:01;;;;;;;8.15;2.10;;;;;;;6.46;100.00;100686.44;5120402;27;20769;-69
2024/03/13 05:31:26;;;;;;;8.65;2.47;;;;;;;6.42;100.00;100689.34;5108300;27;20031;-69
2024/03/13 05:33:52;;;;;;;7.90;2.45;;;;;;;6.37;100.00;100696.63;5127250;27;20087;-69
2024/03/13 05:36:17;;;;;;;3.85;1.40;;;;;;;6.40;100.00;100697.22;5121294;27;20526;-68
2024/03/13 05:38:42;;;;;;;4.22;1.98;;;;;;;6.32;100.00;100690.03;5121287;27;20031;-69
2024/03/13 05:41:08;;;;;;;3.80;1.50;;;;;;;6.37;100.00;100699.22;5126645;27;20140;-69
2024/03/13 05:43:33;;;;;;;3.35;1.27;;;;;;;6.35;100.00;100694.16;5120315;27;20467;-68
2024/03/13 05:45:59;;;;;;;5.00;2.08;;;;;;;6.37;100.00;100696.63;5123389;27;20039;-68
2024/03/13 05:48:24;;;;;;;6.50;1.67;;;;;;;6.38;100.00;100693.94;5126097;27;20127;-68
2024/03/13 05:50:49;;;;;;;9.00;1.75;;;;;;;6.39;100.00;100700.75;5120303;27;20016;-68
2024/03/13 05:53:15;;;;;;;6.70;2.42;;;;;;;6.40;100.00;100701.59;5126825;27;20138;-69
2024/03/13 05:55:42;;;;;;;7.28;2.00;;;;;;;6.40;100.00;100704.16;5123451;27;20035;-68
2024/03/13 05:58:08;;;;;;;3.83;1.70;;;;;;;6.38;100.00;100704.28;5110610;27;20023;-68
2024/03/13 06:00:33;;;;;;;10.80;2.08;;;;;;;6.40;100.00;100711.94;5129425;27;20463;-68
2024/03/13 06:02:59;;;;;;;4.07;1.63;;;;;;;6.33;100.00;100712.38;5131301;27;20038;-68
2024/03/13 06:05:25;;;;;;;6.97;2.15;;;;;;;6.37;100.00;100705.22;5130728;27;20031;-68
2024/03/13 06:07:56;;;;;;;6.20;2.00;;;;;;;6.38;100.00;100711.22;5131299;27;20039;-68
2024/03/13 06:10:22;;;;;;;7.30;1.65;;;;;;;6.42;100.00;100713.47;5130457;27;20052;-68
2024/03/13 06:12:47;;;;;;;7.28;1.70;;;;;;;6.44;100.00;100715.97;5131139;27;20027;-68
2024/03/13 06:15:14;;;;;;;5.88;1.73;;;;;;;6.49;100.00;100721.63;5112187;27;20490;-68
2024/03/13 06:17:40;;;;;;;6.63;1.98;;;;;;;6.58;100.00;100726.13;5131226;27;20026;-68
2024/03/13 06:20:13;;;;;;;7.78;2.17;;;;;;;6.59;100.00;100727.78;5130236;27;20039;-68
2024/03/13 06:22:41;;;;;;;4.65;1.42;;;;;;;6.63;100.00;100729.19;5128696;27;20031;-68
2024/03/13 06:25:08;;;;;;;9.15;2.42;;;;;;;6.69;100.00;100730.50;5130040;27;20425;-68
2024/03/13 06:27:34;;;;;;;8.90;2.35;;;;;;;6.74;100.00;100731.00;5131090;27;20041;-68
2024/03/13 06:30:01;;;;;;;5.95;1.85;;;;;;;6.80;100.00;100736.53;5130975;27;20110;-69
2024/03/13 06:32:28;;;;;;;5.13;1.58;;;;;;;6.83;100.00;100735.50;5126693;27;20083;-68
2024/03/13 06:34:57;;;;;;;7.63;1.85;;;;;;;6.89;100.00;100733.28;5130615;27;20035;-68
2024/03/13 06:37:27;;;;;;;5.28;1.95;;;;;;;6.98;100.00;100732.59;5133131;27;20050;-68
2024/03/13 06:39:53;;;;;;;2.97;1.30;;;;;;;7.09;100.00;100731.75;5130187;27;20496;-69
2024/03/13 06:42:19;;;;;;;6.00;1.67;;;;;;;7.22;100.00;100742.84;5125036;27;20505;-68
2024/03/13 06:44:44;;;;;;;7.63;1.85;;;;;;;7.32;100.00;100735.22;5130796;27;20031;-68
2024/03/13 06:47:11;;;;;;;5.95;1.70;;;;;;;7.45;100.00;100741.13;5129465;27;20118;-68
2024/03/13 06:49:37;;;;;;;3.08;1.23;;;;;;;7.51;100.00;100738.06;5121398;27;20404;-68
2024/03/13 06:52:03;;;;;;;3.78;1.58;;;;;;;7.46;100.00;100742.75;5105580;27;20040;-68
2024/03/13 06:54:29;;;;;;;1.88;0.95;;;;;;;7.33;100.00;100742.03;5127449;27;20046;-69
2024/03/13 06:56:54;;;;;;;5.80;1.60;;;;;;;7.28;100.00;100733.78;5128822;27;20027;-69
2024/03/13 06:59:20;;;;;;;5.15;1.48;;;;;;;7.18;100.00;100741.44;5127412;27;20032;-69
2024/03/13 07:01:51;;;;;;;5.65;0.90;;;;;;;7.17;100.00;100738.97;5115135;28;20118;-69
2024/03/13 07:04:16;;;;;;;3.70;1.40;;;;;;;7.21;100.00;100748.97;5128463;27;20435;-70
2024/03/13 07:06:42;;;;;;;2.85;1.38;;;;;;;7.22;100.00;100747.22;5128434;27;20058;-69
2024/03/13 07:09:08;;;;;;;6.30;1.38;;;;;;;7.41;100.00;100741.47;5124368;27;20110;-69
2024/03/13 07:11:33;;;;;;;6.60;1.65;;;;;;;7.51;100.00;100745.84;5130800;27;20051;-69
2024/03/13 07:13:59;;;;;;;2.45;1.20;;;;;;;7.61;100.00;100740.72;5123145;27;20444;-69
2024/03/13 07:16:24;;;;;;;3.60;1.08;;;;;;;7.66;100.00;100752.41;5128267;27;20114;-70
2024/03/13 07:18:49;;;;;;;3.97;1.63;;;;;;;7.62;100.00;100744.97;5127629;27;20028;-69
2024/03/13 07:21:15;;;;;;;7.32;1.10;;;;;;;7.66;100.00;100747.22;5108393;27;20446;-69
2024/03/13 07:23:40;;;;;;;6.05;1.60;;;;;;;7.73;100.00;100744.16;5121792;27;20066;-69
2024/03/13 07:26:08;;;;;;;2.88;1.25;;;;;;;7.80;100.00;100742.72;5129081;27;20058;-69
2024/03/13 07:28:37;;;;;;;4.47;1.10;;;;;;;7.90;100.00;100749.69;5127220;27;20030;-69
2024/03/13 07:31:04;;;;;;;3.03;0.93;;;;;;;8.05;100.00;100744.22;5128092;27;20118;-69
2024/03/13 07:33:30;;;;;;;2.40;0.93;;;;;;;8.26;100.00;100751.13;5128680;27;20114;-69
2024/03/13 07:35:56;;;;;;;6.68;1.42;;;;;;;8.47;100.00;100748.63;5127537;27;20031;-69
2024/03/13 07:38:21;;;;;;;7.82;1.58;;;;;;;8.57;99.58;100746.91;5128491;27;20085;-70
2024/03/13 07:40:46;;;;;;;6.88;1.15;;;;;;;8.75;99.12;100756.75;5111519;27;20471;-69
2024/03/13 07:43:12;;;;;;;3.63;1.25;;;;;;;8.82;98.95;100758.72;5129635;27;20023;-69
2024/03/13 07:45:42;;;;;;;4.50;0.85;;;;;;;9.02;98.12;100761.44;5130203;27;20034;-69
2024/03/13 07:48:08;;;;;;;3.03;0.90;;;;;;;9.11;97.72;100756.28;5126646;27;20023;-70
2024/03/13 07:50:35;;;;;;;6.70;0.80;;;;;;;9.11;95.87;100755.47;5129596;27;20039;-69
2024/03/13 07:53:02;;;;;;;5.60;0.85;;;;;;;9.23;96.59;100754.44;5125402;27;20039;-69
2024/03/13 07:55:28;;;;;;;3.05;1.08;;;;;;;9.45;94.06;100751.66;5134130;27;20023;-69
2024/03/13 07:57:53;;;;;;;14.80;1.30;;;;;;;9.56;93.69;100748.16;5134075;27;20091;-69
2024/03/13 08:00:22;;;;;;;3.42;1.13;;;;;;;9.46;93.19;100758.50;5132532;27;20035;-69
2024/03/13 08:02:48;;;;;;;4.57;0.60;;;;;;;9.53;94.38;100749.25;5133881;27;20385;-69
2024/03/13 08:05:14;;;;;;;4.35;0.90;;;;;;;9.64;93.68;100756.97;5132948;27;20035;-69
2024/03/13 08:07:44;;;;;;;3.28;0.70;;;;;;;9.77;93.74;100748.09;5134059;27;20486;-69
2024/03/13 08:10:10;;;;;;;4.13;0.80;;;;;;;9.83;91.63;100753.59;5132823;27;20073;-68
2024/03/13 08:12:35;;;;;;;2.17;0.90;;;;;;;10.38;92.15;100750.59;5134238;27;20110;-68
2024/03/13 08:15:02;;;;;;;2.95;0.80;;;;;;;11.46;84.89;100751.88;5131541;27;20031;-69
2024/03/13 08:17:27;;;;;;;3.67;0.70;;;;;;;11.52;83.51;100746.09;5127787;27;20027;-69
2024/03/13 08:19:53;;;;;;;1.20;0.63;;;;;;;11.40;85.32;100752.47;5133525;27;20140;-69
2024/03/13 08:22:18;;;;;;;2.83;0.70;;;;;;;11.55;83.48;100751.03;5106394;27;20035;-69
2024/03/13 08:24:44;;;;;;;2.15;0.50;;;;;;;11.49;84.80;100754.22;5131121;27;20035;-69
2024/03/13 08:27:10;;;;;;;1.50;0.60;;;;;;;11.76;82.51;100755.22;5130348;27;20031;-69
2024/03/13 08:29:36;;;;;;;8.75;0.98;;;;;;;11.95;81.90;100755.94;5128150;27;20134;-69
2024/03/13 08:32:05;;;;;;;7.22;0.75;;;;;;;11.78;82.12;100754.13;5130330;27;20046;-69
2024/03/13 08:34:32;;;;;;;1.50;0.52;;;;;;;12.07;82.52;100751.34;5125926;27;20035;-69
2024/03/13 08:36:58;;;;;;;1.63;0.55;;;;;;;11.97;81.59;100758.41;5133719;27;20031;-69
2024/03/13 08:39:27;;;;;;;4.68;0.70;;;;;;;11.91;81.29;100764.22;5130061;27;20386;-69
2024/03/13 08:41:57;;;;;;;4.60;1.23;;;;;;;11.87;84.65;100763.69;5133082;27;20037;-69
2024/03/13 08:44:23;;;;;;;4.13;0.73;;;;;;;11.82;83.74;100765.91;5131237;27;20027;-69
2024/03/13 08:46:49;;;;;;;3.67;1.05;;;;;;;11.85;84.36;100770.84;5131017;27;20108;-69
2024/03/13 08:49:15;;;;;;;3.35;0.60;;;;;;;11.96;84.43;100772.44;5129357;27;20057;-69
2024/03/13 08:51:40;;;;;;;2.67;0.52;;;;;;;11.99;86.11;100769.53;5112464;27;20514;-69
2024/03/13 08:54:06;;;;;;;2.38;0.45;;;;;;;12.12;80.86;100777.03;5131274;27;20035;-69
2024/03/13 08:56:38;;;;;;;4.78;0.57;;;;;;;12.28;82.60;100780.63;5133200;27;20106;-69
2024/03/13 08:59:04;;;;;;;7.75;0.82;;;;;;;12.40;85.19;100780.41;5109477;27;20084;-69
2024/03/13 09:01:42;;;;;;;3.08;0.35;;;;;;;12.58;83.72;100779.44;5133178;27;20050;-69
2024/03/13 09:04:09;;;;;;;2.05;0.40;;;;;;;12.70;82.19;100777.44;5130415;27;20035;-69
2024/03/13 09:06:36;;;;;;;4.93;0.55;;;;;;;12.80;86.74;100772.09;5125866;27;20105;-69
2024/03/13 09:09:04;;;;;;;3.15;0.70;;;;;;;12.96;84.77;100786.13;5127598;27;20034;-69
2024/03/13 09:11:29;;;;;;;3.33;0.63;;;;;;;12.98;87.12;100779.91;5112470;27;20396;-69
2024/03/13 09:14:01;;;;;;;1.52;0.50;;;;;;;12.71;88.58;100773.03;5129801;27;20050;-69
2024/03/13 09:16:28;;;;;;;2.80;0.95;;;;;;;12.70;86.58;100774.00;5122394;27;20081;-69
2024/03/13 09:18:53;;;;;;;4.95;0.73;;;;;;;12.61;86.66;100776.53;5129696;27;20035;-69
2024/03/13 09:21:19;;;;;;;3.78;0.77;;;;;;;12.52;85.68;100776.59;5112944;27;20054;-69
2024/03/13 09:23:45;;;;;;;2.83;1.00;;;;;;;12.49;89.75;100776.91;5123225;27;20039;-69
2024/03/13 09:26:13;;;;;;;3.80;0.70;;;;;;;12.58;91.28;100778.63;5131479;27;20050;-70
2024/03/13 09:28:39;;;;;;;2.38;0.52;;;;;;;12.44;90.36;100779.94;5129839;27;20023;-70
2024/03/13 09:31:04;;;;;;;1.33;0.52;;;;;;;12.37;83.81;100780.69;5128195;27;20547;-70
2024/03/13 09:33:31;;;;;;;2.10;0.60;;;;;;;12.47;88.19;100778.84;5137832;27;20070;-70
2024/03/13 09:35:59;;;;;;;3.22;0.68;;;;;;;12.54;91.23;100775.47;5131362;27;20050;-70
2024/03/13 09:38:25;;;;;;;2.33;0.60;;;;;;;12.48;93.44;100788.31;5125895;27;20027;-68
2024/03/13 09:40:50;;;;;;;2.17;0.65;;;;;;;12.38;93.74;100782.34;5126067;27;20039;-67
2024/03/13 09:43:16;;;;;;;2.47;0.82;;;;;;;12.45;93.09;100780.78;5119791;27;20114;-67
2024/03/13 09:45:44;;;;;;;2.60;0.82;;;;;;;12.49;93.42;100780.34;5133343;27;20050;-67
2024/03/13 09:48:13;;;;;;;2.75;0.55;;;;;;;12.52;94.97;100777.41;5129044;27;20035;-67
2024/03/13 09:50:42;;;;;;;3.40;0.70;;;;;;;12.49;93.86;100774.28;5124453;27;20015;-67
2024/03/13 09:53:10;;;;;;;4.07;0.50;;;;;;;12.49;94.50;100782.13;5127231;27;20035;-67
2024/03/13 09:55:37;;;;;;;2.55;0.65;;;;;;;12.56;94.19;100777.94;5126013;27;20386;-67
2024/03/13 09:58:03;;;;;;;1.15;0.55;;;;;;;12.63;93.92;100776.38;5129624;27;20039;-67
2024/03/13 10:00:28;;;;;;;2.63;0.57;;;;;;;12.68;91.58;100779.38;5109371;27;20027;-67
2024/03/13 10:02:56;;;;;;;1.42;0.60;;;;;;;12.76;92.62;100782.03;5110936;27;20023;-67
2024/03/13 10:05:23;;;;;;;5.00;0.80;;;;;;;12.82;92.70;100775.38;5127019;27;20039;-67
2024/03/13 10:07:56;;;;;;;4.82;1.05;;;;;;;12.87;90.83;100781.78;5128501;27;20088;-67
2024/03/13 10:10:26;;;;;;;4.65;0.52;;;;;;;13.04;88.07;100774.06;5127546;27;20047;-67
2024/03/13 10:12:54;;;;;;;1.00;0.40;;;;;;;13.25;88.48;100777.19;5125985;27;20040;-67
2024/03/13 10:15:24;;;;;;;2.28;0.60;;;;;;;13.28;90.18;100776.88;5129588;27;20506;-67
2024/03/13 10:18:01;;;;;;;7.15;0.50;;;;;;;13.23;87.67;100772.09;5130713;27;20043;-67
2024/03/13 10:20:35;;;;;;;2.45;0.30;;;;;;;13.23;85.33;100776.53;5123633;27;20030;-67
2024/03/13 10:23:02;;;;;;;2.92;0.40;;;;;;;13.14;87.92;100772.19;5107830;27;20027;-67
2024/03/13 10:25:29;;;;;;;1.10;0.38;;;;;;;13.10;90.02;100770.84;5124996;27;20030;-67
2024/03/13 10:27:56;;;;;;;1.45;0.40;;;;;;;13.03;90.91;100761.97;5129756;27;20043;-67
2024/03/13 10:30:22;;;;;;;1.73;0.45;;;;;;;13.05;85.83;100760.03;5126578;27;20125;-67
2024/03/13 10:32:49;;;;;;;2.80;0.40;;;;;;;13.03;89.71;100761.97;5130141;27;20031;-67
2024/03/13 10:35:15;;;;;;;0.90;0.30;;;;;;;12.94;88.73;100758.47;5129030;27;20035;-67
2024/03/13 10:37:41;;;;;;;1.38;0.30;;;;;;;12.93;88.17;100757.66;5127696;27;20027;-67
2024/03/13 10:40:07;;;;;;;2.95;0.70;;;;;;;13.03;88.18;100759.34;5128563;27;20138;-67
2024/03/13 10:42:33;;;;;;;3.67;0.50;;;;;;;13.09;90.16;100750.91;5104568;27;20102;-67
2024/03/13 10:44:58;;;;;;;2.42;0.38;;;;;;;13.21;89.64;100752.31;5128791;27;20471;-67
2024/03/13 10:47:28;;;;;;;1.00;0.40;;;;;;;13.38;90.61;100747.97;5123076;27;20027;-67
2024/03/13 10:49:55;;;;;;;3.20;0.40;;;;;;;13.49;89.42;100748.53;5125939;27;20047;-67
2024/03/13 10:52:21;;;;;;;1.52;0.30;;;;;;;13.61;88.78;100736.00;5123953;27;20110;-67
2024/03/13 10:54:46;;;;;;;1.10;0.30;;;;;;;13.81;88.81;100739.16;5126710;27;21356;-67
2024/03/13 10:57:18;;;;;;;2.00;0.40;;;;;;;14.05;85.94;100739.25;5121756;27;20091;-66
2024/03/13 10:59:47;;;;;;;1.38;0.20;;;;;;;14.19;86.95;100733.34;5122566;27;20038;-69
2024/03/13 11:02:13;;;;;;;0.65;0.30;;;;;;;14.32;86.34;100732.88;5126042;27;20076;-69
2024/03/13 11:04:40;;;;;;;0.75;0.25;;;;;;;14.42;86.23;100738.84;5130248;27;20117;-69
2024/03/13 11:07:15;;;;;;;4.13;0.32;;;;;;;14.61;86.81;100732.47;5128771;27;20124;-69
2024/03/13 11:09:41;;;;;;;2.13;0.25;;;;;;;14.68;84.98;100725.53;5129936;27;20169;-69
2024/03/13 11:12:19;;;;;;;2.05;0.35;;;;;;;14.55;82.65;100726.06;5123660;27;20610;-68
2024/03/13 11:14:53;;;;;;;1.17;0.20;;;;;;;14.45;85.26;100717.53;5130074;27;20164;-68
2024/03/13 11:17:21;;;;;;;1.60;0.20;;;;;;;14.41;84.73;100723.22;5125173;27;20023;-69
2024/03/13 11:19:50;;;;;;;0.95;0.13;;;;;;;14.48;81.30;100722.44;5111414;27;20106;-68
2024/03/13 11:22:17;;;;;;;0.32;0.10;;;;;;;14.82;82.17;100727.50;5128194;27;20343;-68
2024/03/13 11:24:42;;;;;;;1.27;0.20;;;;;;;14.76;82.71;100720.31;5132130;27;20417;-69
2024/03/13 11:27:16;;;;;;;0.68;0.20;;;;;;;14.54;80.31;100724.41;5131798;27;20133;-68
2024/03/13 11:29:43;;;;;;;0.95;0.10;;;;;;;14.36;82.89;100715.03;5131764;27;20038;-69
2024/03/13 11:32:11;;;;;;;2.35;0.10;;;;;;;14.41;82.67;100712.75;5111892;27;20038;-69
2024/03/13 11:34:37;;;;;;;0.40;0.15;;;;;;;14.63;79.16;100712.13;5129582;27;20381;-68
2024/03/13 11:37:04;;;;;;;2.75;0.22;;;;;;;14.82;79.99;100710.94;5130478;27;20393;-69
2024/03/13 11:39:31;;;;;;;0.20;0.10;;;;;;;14.93;77.85;100708.00;5127292;27;20529;-68